EGYH - Holbeach
Distance from station: E 5mi, 14km
Updated: 07/19/2018 7:50am
NOT Current
Clear
Clear
 Wind from ENE
Wind: ENE 12 mph , 19 km/h
Temperature: 73°F , 23°C
Dew Point: 59°F , 15°C
Humidity: 61%
Barometer: 30.06 inHg , 1018 hPa
Summary: Clear
Visibility: greater than 7 miles , 10 km
2018/07/19 14:50 EGYH 191450Z 07010KT CAVOK 23/15 Q1018 BLU